sensor_id;sensor_type;location;lat;lon;timestamp;pressure;altitude;pressure_sealevel;temperature;humidity
63927;BME280;50103;47.960;21.712;2023-02-02T06:01:06;99852.58;;;2.17;100.00
63927;BME280;50103;47.960;21.712;2023-02-02T06:03:32;99858.40;;;2.19;100.00
63927;BME280;50103;47.960;21.712;2023-02-02T06:05:58;99859.88;;;2.21;100.00
63927;BME280;50103;47.960;21.712;2023-02-02T06:08:24;99869.77;;;2.23;99.98
63927;BME280;50103;47.960;21.712;2023-02-02T06:10:49;99873.93;;;2.23;100.00
63927;BME280;50103;47.960;21.712;2023-02-02T06:13:15;99879.14;;;2.24;99.97
63927;BME280;50103;47.960;21.712;2023-02-02T06:15:41;99881.59;;;2.23;99.63
63927;BME280;50103;47.960;21.712;2023-02-02T06:18:08;99886.05;;;2.22;99.24
63927;BME280;50103;47.960;21.712;2023-02-02T06:20:34;99884.53;;;2.20;99.45
63927;BME280;50103;47.960;21.712;2023-02-02T06:23:01;99884.55;;;2.20;99.19
63927;BME280;50103;47.960;21.712;2023-02-02T06:25:27;99890.67;;;2.20;98.89
63927;BME280;50103;47.960;21.712;2023-02-02T06:27:56;99895.77;;;2.19;98.98
63927;BME280;50103;47.960;21.712;2023-02-02T06:30:22;99897.38;;;2.19;99.06
63927;BME280;50103;47.960;21.712;2023-02-02T06:32:48;99905.36;;;2.20;99.08
63927;BME280;50103;47.960;21.712;2023-02-02T06:35:13;99904.66;;;2.20;98.62
63927;BME280;50103;47.960;21.712;2023-02-02T06:37:39;99912.98;;;2.21;98.88
63927;BME280;50103;47.960;21.712;2023-02-02T06:40:08;99914.17;;;2.22;98.58
63927;BME280;50103;47.960;21.712;2023-02-02T06:42:35;99916.55;;;2.23;98.61
63927;BME280;50103;47.960;21.712;2023-02-02T06:45:02;99921.59;;;2.24;98.68
63927;BME280;50103;47.960;21.712;2023-02-02T06:47:28;99924.17;;;2.24;98.41
63927;BME280;50103;47.960;21.712;2023-02-02T06:49:53;99928.45;;;2.26;98.42
63927;BME280;50103;47.960;21.712;2023-02-02T06:52:20;99924.89;;;2.27;98.29
63927;BME280;50103;47.960;21.712;2023-02-02T06:54:46;99932.80;;;2.30;98.10
63927;BME280;50103;47.960;21.712;2023-02-02T06:57:11;99937.92;;;2.32;98.04
63927;BME280;50103;47.960;21.712;2023-02-02T06:59:37;99935.54;;;2.34;98.26
63927;BME280;50103;47.960;21.712;2023-02-02T07:02:07;99936.64;;;2.37;97.98
63927;BME280;50103;47.960;21.712;2023-02-02T07:04:33;99936.52;;;2.39;97.86
63927;BME280;50103;47.960;21.712;2023-02-02T07:06:59;99939.91;;;2.41;97.85
63927;BME280;50103;47.960;21.712;2023-02-02T07:09:25;99941.80;;;2.42;97.62
63927;BME280;50103;47.960;21.712;2023-02-02T07:11:50;99943.15;;;2.43;97.43
63927;BME280;50103;47.960;21.712;2023-02-02T07:14:16;99942.25;;;2.43;97.95
63927;BME280;50103;47.960;21.712;2023-02-02T07:16:42;99947.31;;;2.44;97.63
63927;BME280;50103;47.960;21.712;2023-02-02T07:19:08;99950.96;;;2.44;97.66
63927;BME280;50103;47.960;21.712;2023-02-02T07:21:34;99953.23;;;2.44;97.51
63927;BME280;50103;47.960;21.712;2023-02-02T07:24:01;99954.38;;;2.45;97.76
63927;BME280;50103;47.960;21.712;2023-02-02T07:26:27;99954.02;;;2.45;97.36
63927;BME280;50103;47.960;21.712;2023-02-02T07:28:53;99955.94;;;2.45;97.43
63927;BME280;50103;47.960;21.712;2023-02-02T07:31:21;99952.10;;;2.45;97.59
63927;BME280;50103;47.960;21.712;2023-02-02T07:33:48;99957.23;;;2.48;97.54
63927;BME280;50103;47.960;21.712;2023-02-02T07:36:17;99961.20;;;2.49;97.21
63927;BME280;50103;47.960;21.712;2023-02-02T07:39:01;99956.42;;;2.50;97.24
63927;BME280;50103;47.960;21.712;2023-02-02T07:41:29;99963.51;;;2.52;97.04
63927;BME280;50103;47.960;21.712;2023-02-02T07:43:54;99967.59;;;2.54;97.15
63927;BME280;50103;47.960;21.712;2023-02-02T07:46:20;99968.23;;;2.55;97.03
63927;BME280;50103;47.960;21.712;2023-02-02T07:48:47;99972.17;;;2.57;96.94
63927;BME280;50103;47.960;21.712;2023-02-02T07:51:15;99975.74;;;2.59;96.60
63927;BME280;50103;47.960;21.712;2023-02-02T07:53:46;99979.52;;;2.60;96.82
63927;BME280;50103;47.960;21.712;2023-02-02T07:56:14;99979.10;;;2.61;96.56
63927;BME280;50103;47.960;21.712;2023-02-02T07:58:41;99976.06;;;2.63;96.47
63927;BME280;50103;47.960;21.712;2023-02-02T08:01:09;99976.70;;;2.64;96.34
63927;BME280;50103;47.960;21.712;2023-02-02T08:03:36;99976.44;;;2.66;96.14
63927;BME280;50103;47.960;21.712;2023-02-02T08:06:15;99978.13;;;2.67;96.22
63927;BME280;50103;47.960;21.712;2023-02-02T08:08:42;99982.40;;;2.69;96.13
63927;BME280;50103;47.960;21.712;2023-02-02T08:11:09;99985.89;;;2.69;96.19
63927;BME280;50103;47.960;21.712;2023-02-02T08:13:36;99986.02;;;2.70;95.98
63927;BME280;50103;47.960;21.712;2023-02-02T08:16:06;99989.55;;;2.69;96.10
63927;BME280;50103;47.960;21.712;2023-02-02T08:18:32;99993.07;;;2.68;95.84
63927;BME280;50103;47.960;21.712;2023-02-02T08:20:59;99993.25;;;2.68;95.66
63927;BME280;50103;47.960;21.712;2023-02-02T08:23:26;99996.38;;;2.69;95.82
63927;BME280;50103;47.960;21.712;2023-02-02T08:25:53;99995.16;;;2.69;95.46
63927;BME280;50103;47.960;21.712;2023-02-02T08:28:19;99993.75;;;2.69;95.49
63927;BME280;50103;47.960;21.712;2023-02-02T08:30:44;99996.48;;;2.70;95.36
63927;BME280;50103;47.960;21.712;2023-02-02T08:33:10;99992.42;;;2.71;95.38
63927;BME280;50103;47.960;21.712;2023-02-02T08:35:42;99996.20;;;2.76;95.02
63927;BME280;50103;47.960;21.712;2023-02-02T08:38:09;99997.43;;;2.79;95.63
63927;BME280;50103;47.960;21.712;2023-02-02T08:40:34;99997.41;;;2.83;95.44
63927;BME280;50103;47.960;21.712;2023-02-02T08:43:03;99995.59;;;2.89;94.98
63927;BME280;50103;47.960;21.712;2023-02-02T08:45:30;99997.39;;;2.94;94.42
63927;BME280;50103;47.960;21.712;2023-02-02T08:47:56;99998.74;;;2.98;94.12
63927;BME280;50103;47.960;21.712;2023-02-02T08:50:21;99998.14;;;3.03;94.20
63927;BME280;50103;47.960;21.712;2023-02-02T08:52:47;99998.02;;;3.09;93.56
63927;BME280;50103;47.960;21.712;2023-02-02T08:55:13;99991.58;;;3.15;92.99
63927;BME280;50103;47.960;21.712;2023-02-02T08:57:41;99993.58;;;3.21;93.12
63927;BME280;50103;47.960;21.712;2023-02-02T09:00:07;99998.16;;;3.27;93.01
63927;BME280;50103;47.960;21.712;2023-02-02T09:02:36;99993.48;;;3.32;92.61
63927;BME280;50103;47.960;21.712;2023-02-02T09:05:01;99994.42;;;3.38;92.18
63927;BME280;50103;47.960;21.712;2023-02-02T09:07:27;99997.42;;;3.43;91.41
63927;BME280;50103;47.960;21.712;2023-02-02T09:09:53;99998.98;;;3.47;91.63
63927;BME280;50103;47.960;21.712;2023-02-02T09:12:23;100000.48;;;3.52;90.95
63927;BME280;50103;47.960;21.712;2023-02-02T09:14:50;100001.50;;;3.56;90.48
63927;BME280;50103;47.960;21.712;2023-02-02T09:17:16;100002.77;;;3.62;90.42
63927;BME280;50103;47.960;21.712;2023-02-02T09:19:41;100003.73;;;3.67;90.48
63927;BME280;50103;47.960;21.712;2023-02-02T09:22:07;100008.13;;;3.73;89.42
63927;BME280;50103;47.960;21.712;2023-02-02T09:24:34;100011.89;;;3.77;89.53
63927;BME280;50103;47.960;21.712;2023-02-02T09:27:00;100007.64;;;3.82;89.41
63927;BME280;50103;47.960;21.712;2023-02-02T09:29:26;100009.30;;;3.87;88.80
63927;BME280;50103;47.960;21.712;2023-02-02T09:31:51;100013.87;;;3.93;88.35
63927;BME280;50103;47.960;21.712;2023-02-02T09:34:17;100013.63;;;3.97;88.63
63927;BME280;50103;47.960;21.712;2023-02-02T09:36:43;100011.70;;;4.04;87.54
63927;BME280;50103;47.960;21.712;2023-02-02T09:39:32;100010.02;;;4.08;87.41
63927;BME280;50103;47.960;21.712;2023-02-02T09:42:07;100011.30;;;4.14;87.30
63927;BME280;50103;47.960;21.712;2023-02-02T09:44:55;100015.71;;;4.19;87.52
63927;BME280;50103;47.960;21.712;2023-02-02T09:47:51;100014.65;;;4.26;87.42
63927;BME280;50103;47.960;21.712;2023-02-02T09:50:31;100016.67;;;4.34;87.01
63927;BME280;50103;47.960;21.712;2023-02-02T09:53:26;100021.11;;;4.42;86.78
63927;BME280;50103;47.960;21.712;2023-02-02T09:55:52;100024.38;;;4.50;85.83
63927;BME280;50103;47.960;21.712;2023-02-02T09:58:40;100027.92;;;4.54;84.67
63927;BME280;50103;47.960;21.712;2023-02-02T10:01:15;100021.46;;;4.61;85.05
63927;BME280;50103;47.960;21.712;2023-02-02T10:04:03;100022.27;;;4.68;84.10
63927;BME280;50103;47.960;21.712;2023-02-02T10:06:42;100015.16;;;4.72;83.79
63927;BME280;50103;47.960;21.712;2023-02-02T10:09:27;100012.59;;;4.77;84.12
63927;BME280;50103;47.960;21.712;2023-02-02T10:17:24;100018.73;;;4.96;83.66
63927;BME280;50103;47.960;21.712;2023-02-02T10:19:54;100026.95;;;5.02;83.06
63927;BME280;50103;47.960;21.712;2023-02-02T10:22:26;100026.58;;;5.08;83.34
63927;BME280;50103;47.960;21.712;2023-02-02T10:24:55;100024.27;;;5.17;82.70
63927;BME280;50103;47.960;21.712;2023-02-02T10:27:36;100022.92;;;5.25;83.04
63927;BME280;50103;47.960;21.712;2023-02-02T10:30:07;100016.79;;;5.37;82.03
63927;BME280;50103;47.960;21.712;2023-02-02T10:33:00;100015.98;;;5.47;81.76
63927;BME280;50103;47.960;21.712;2023-02-02T10:35:41;100015.30;;;5.55;79.70
63927;BME280;50103;47.960;21.712;2023-02-02T10:38:30;100011.39;;;5.59;79.26
63927;BME280;50103;47.960;21.712;2023-02-02T10:46:36;100003.73;;;6.55;78.65
63927;BME280;50103;47.960;21.712;2023-02-02T10:54:54;99997.23;;;7.20;75.86
63927;BME280;50103;47.960;21.712;2023-02-02T10:58:17;99992.73;;;7.32;75.28
63927;BME280;50103;47.960;21.712;2023-02-02T11:00:46;99985.30;;;7.55;74.37
63927;BME280;50103;47.960;21.712;2023-02-02T11:03:19;99978.52;;;7.66;71.20
63927;BME280;50103;47.960;21.712;2023-02-02T11:05:47;99975.71;;;7.69;71.69
63927;BME280;50103;47.960;21.712;2023-02-02T11:08:40;99974.46;;;7.77;70.51
63927;BME280;50103;47.960;21.712;2023-02-02T11:11:17;99971.53;;;7.83;70.82
63927;BME280;50103;47.960;21.712;2023-02-02T11:13:56;99974.80;;;7.82;71.03
63927;BME280;50103;47.960;21.712;2023-02-02T11:16:26;99973.14;;;7.76;70.16
63927;BME280;50103;47.960;21.712;2023-02-02T11:18:52;99973.27;;;7.68;70.83
63927;BME280;50103;47.960;21.712;2023-02-02T11:21:25;99973.20;;;7.67;70.32
63927;BME280;50103;47.960;21.712;2023-02-02T11:23:57;99977.02;;;7.70;68.12
63927;BME280;50103;47.960;21.712;2023-02-02T11:26:25;99971.77;;;7.62;68.62
63927;BME280;50103;47.960;21.712;2023-02-02T11:28:53;99972.08;;;7.68;68.88
63927;BME280;50103;47.960;21.712;2023-02-02T11:31:35;99971.64;;;7.79;68.35
63927;BME280;50103;47.960;21.712;2023-02-02T11:34:21;99973.30;;;7.97;68.19
63927;BME280;50103;47.960;21.712;2023-02-02T11:36:59;99970.69;;;8.12;67.82
63927;BME280;50103;47.960;21.712;2023-02-02T11:39:25;99966.59;;;8.34;67.60
63927;BME280;50103;47.960;21.712;2023-02-02T11:42:17;99960.60;;;8.63;66.58
63927;BME280;50103;47.960;21.712;2023-02-02T11:44:53;99955.55;;;8.95;66.43
63927;BME280;50103;47.960;21.712;2023-02-02T11:47:29;99950.78;;;9.15;65.96
63927;BME280;50103;47.960;21.712;2023-02-02T11:50:00;99948.48;;;9.36;63.09
63927;BME280;50103;47.960;21.712;2023-02-02T11:52:29;99948.11;;;9.45;64.21
63927;BME280;50103;47.960;21.712;2023-02-02T11:54:58;99942.82;;;9.49;63.45
63927;BME280;50103;47.960;21.712;2023-02-02T11:57:27;99941.65;;;9.53;61.42
63927;BME280;50103;47.960;21.712;2023-02-02T12:00:16;99947.05;;;9.42;61.26
63927;BME280;50103;47.960;21.712;2023-02-02T12:02:47;99947.07;;;9.29;60.88
63927;BME280;50103;47.960;21.712;2023-02-02T12:07:45;99936.48;;;9.40;60.57
63927;BME280;50103;47.960;21.712;2023-02-02T12:10:13;99931.21;;;9.75;59.77
63927;BME280;50103;47.960;21.712;2023-02-02T12:23:57;99909.75;;;10.04;56.60
63927;BME280;50103;47.960;21.712;2023-02-02T12:26:31;99913.97;;;9.81;55.48
63927;BME280;50103;47.960;21.712;2023-02-02T12:32:21;99907.32;;;9.27;55.52
63927;BME280;50103;47.960;21.712;2023-02-02T12:35:17;99910.64;;;9.07;55.84
63927;BME280;50103;47.960;21.712;2023-02-02T12:43:41;99914.20;;;8.67;56.61
63927;BME280;50103;47.960;21.712;2023-02-02T12:46:33;99910.21;;;8.57;56.67
63927;BME280;50103;47.960;21.712;2023-02-02T12:49:29;99912.72;;;8.48;56.53
63927;BME280;50103;47.960;21.712;2023-02-02T13:09:01;99931.81;;;8.15;56.79
63927;BME280;50103;47.960;21.712;2023-02-02T13:11:53;99932.20;;;8.11;56.52
63927;BME280;50103;47.960;21.712;2023-02-02T13:14:28;99936.81;;;8.05;54.95
63927;BME280;50103;47.960;21.712;2023-02-02T13:17:00;99939.23;;;7.96;54.54
63927;BME280;50103;47.960;21.712;2023-02-02T13:19:45;99941.20;;;7.88;54.89
63927;BME280;50103;47.960;21.712;2023-02-02T13:22:17;99940.06;;;7.82;55.70
63927;BME280;50103;47.960;21.712;2023-02-02T13:24:47;99941.24;;;7.78;55.53
63927;BME280;50103;47.960;21.712;2023-02-02T13:27:19;99939.61;;;7.74;55.41
63927;BME280;50103;47.960;21.712;2023-02-02T13:29:56;99944.04;;;7.70;56.48
63927;BME280;50103;47.960;21.712;2023-02-02T13:32:29;99945.40;;;7.68;56.49
63927;BME280;50103;47.960;21.712;2023-02-02T13:35:00;99951.20;;;7.69;56.13
63927;BME280;50103;47.960;21.712;2023-02-02T13:37:38;99945.25;;;7.68;56.64
63927;BME280;50103;47.960;21.712;2023-02-02T13:40:35;99945.55;;;7.69;56.87
63927;BME280;50103;47.960;21.712;2023-02-02T14:01:03;99954.09;;;7.53;56.67
63927;BME280;50103;47.960;21.712;2023-02-02T14:03:39;99955.48;;;7.51;57.45
63927;BME280;50103;47.960;21.712;2023-02-02T14:06:20;99958.64;;;7.51;57.59
63927;BME280;50103;47.960;21.712;2023-02-02T14:09:04;99956.91;;;7.48;57.23
63927;BME280;50103;47.960;21.712;2023-02-02T14:11:33;99959.29;;;7.45;57.44
63927;BME280;50103;47.960;21.712;2023-02-02T14:14:15;99960.16;;;7.42;57.30
63927;BME280;50103;47.960;21.712;2023-02-02T14:16:58;99955.11;;;7.39;58.01
63927;BME280;50103;47.960;21.712;2023-02-02T14:24:42;99960.77;;;7.33;58.63
63927;BME280;50103;47.960;21.712;2023-02-02T14:35:00;99971.91;;;7.25;59.03
63927;BME280;50103;47.960;21.712;2023-02-02T14:38:00;99973.57;;;7.21;59.24
63927;BME280;50103;47.960;21.712;2023-02-02T14:40:49;99976.76;;;7.18;59.68
63927;BME280;50103;47.960;21.712;2023-02-02T14:46:31;99977.74;;;7.12;61.15
63927;BME280;50103;47.960;21.712;2023-02-02T14:57:55;99996.09;;;7.06;62.49
63927;BME280;50103;47.960;21.712;2023-02-02T15:00:41;99997.23;;;7.05;62.80
63927;BME280;50103;47.960;21.712;2023-02-02T15:03:32;99997.34;;;7.03;63.06
63927;BME280;50103;47.960;21.712;2023-02-02T15:06:31;100000.83;;;7.01;62.68
63927;BME280;50103;47.960;21.712;2023-02-02T15:12:23;100008.17;;;6.97;63.05
63927;BME280;50103;47.960;21.712;2023-02-02T15:17:38;100012.73;;;6.92;62.67
63927;BME280;50103;47.960;21.712;2023-02-02T15:20:45;100012.23;;;6.89;62.77
63927;BME280;50103;47.960;21.712;2023-02-02T15:26:07;100024.82;;;6.85;62.84
63927;BME280;50103;47.960;21.712;2023-02-02T15:28:42;100029.91;;;6.82;63.56
63927;BME280;50103;47.960;21.712;2023-02-02T15:33:50;100034.95;;;6.81;63.87
63927;BME280;50103;47.960;21.712;2023-02-02T15:36:23;100042.11;;;6.79;64.11
63927;BME280;50103;47.960;21.712;2023-02-02T15:38:55;100047.62;;;6.78;64.29
63927;BME280;50103;47.960;21.712;2023-02-02T15:44:27;100061.37;;;6.75;64.71
63927;BME280;50103;47.960;21.712;2023-02-02T15:46:54;100060.55;;;6.71;65.11
63927;BME280;50103;47.960;21.712;2023-02-02T15:49:47;100062.87;;;6.65;65.33
63927;BME280;50103;47.960;21.712;2023-02-02T15:52:29;100071.24;;;6.61;65.90
63927;BME280;50103;47.960;21.712;2023-02-02T15:55:00;100074.64;;;6.57;66.04
63927;BME280;50103;47.960;21.712;2023-02-02T15:57:32;100078.11;;;6.55;66.29
63927;BME280;50103;47.960;21.712;2023-02-02T16:00:00;100073.89;;;6.52;66.47
63927;BME280;50103;47.960;21.712;2023-02-02T16:02:34;100077.59;;;6.50;66.57
63927;BME280;50103;47.960;21.712;2023-02-02T16:05:26;100080.95;;;6.47;67.16
63927;BME280;50103;47.960;21.712;2023-02-02T16:08:13;100086.48;;;6.46;66.44
63927;BME280;50103;47.960;21.712;2023-02-02T16:10:40;100086.34;;;6.43;66.12
63927;BME280;50103;47.960;21.712;2023-02-02T16:13:05;100087.59;;;6.39;66.44
63927;BME280;50103;47.960;21.712;2023-02-02T16:15:31;100092.77;;;6.38;66.18
63927;BME280;50103;47.960;21.712;2023-02-02T16:17:59;100101.03;;;6.35;66.25
63927;BME280;50103;47.960;21.712;2023-02-02T16:20:31;100104.64;;;6.34;66.07
63927;BME280;50103;47.960;21.712;2023-02-02T16:22:58;100107.45;;;6.31;66.06
63927;BME280;50103;47.960;21.712;2023-02-02T16:25:29;100109.78;;;6.27;66.10
63927;BME280;50103;47.960;21.712;2023-02-02T16:27:57;100113.63;;;6.25;66.23
63927;BME280;50103;47.960;21.712;2023-02-02T16:30:30;100119.39;;;6.22;66.34
63927;BME280;50103;47.960;21.712;2023-02-02T16:32:56;100124.27;;;6.20;65.98
63927;BME280;50103;47.960;21.712;2023-02-02T16:35:34;100129.36;;;6.18;66.13
63927;BME280;50103;47.960;21.712;2023-02-02T16:38:23;100134.42;;;6.16;66.05
63927;BME280;50103;47.960;21.712;2023-02-02T16:41:13;100137.82;;;6.12;65.92
63927;BME280;50103;47.960;21.712;2023-02-02T16:43:48;100142.61;;;6.09;66.39
63927;BME280;50103;47.960;21.712;2023-02-02T16:46:14;100147.78;;;6.07;66.34
63927;BME280;50103;47.960;21.712;2023-02-02T16:48:58;100144.56;;;6.05;66.57
63927;BME280;50103;47.960;21.712;2023-02-02T16:51:29;100152.35;;;6.04;66.78
63927;BME280;50103;47.960;21.712;2023-02-02T16:54:02;100157.25;;;6.02;66.75
63927;BME280;50103;47.960;21.712;2023-02-02T16:56:37;100163.19;;;6.00;67.10
63927;BME280;50103;47.960;21.712;2023-02-02T16:59:36;100168.73;;;5.98;67.33
63927;BME280;50103;47.960;21.712;2023-02-02T17:02:31;100172.36;;;5.96;67.79
63927;BME280;50103;47.960;21.712;2023-02-02T17:05:29;100171.41;;;5.94;68.09
63927;BME280;50103;47.960;21.712;2023-02-02T17:08:02;100177.29;;;5.93;68.36
63927;BME280;50103;47.960;21.712;2023-02-02T17:13:01;100189.20;;;5.91;68.77
63927;BME280;50103;47.960;21.712;2023-02-02T17:15:32;100194.13;;;5.91;69.33
63927;BME280;50103;47.960;21.712;2023-02-02T17:17:59;100192.00;;;5.91;69.46
63927;BME280;50103;47.960;21.712;2023-02-02T17:20:25;100201.20;;;5.90;69.79
63927;BME280;50103;47.960;21.712;2023-02-02T17:22:55;100203.24;;;5.88;70.22
63927;BME280;50103;47.960;21.712;2023-02-02T17:25:35;100208.61;;;5.86;70.52
63927;BME280;50103;47.960;21.712;2023-02-02T17:28:02;100212.20;;;5.85;70.79
63927;BME280;50103;47.960;21.712;2023-02-02T17:30:29;100214.84;;;5.82;71.03
63927;BME280;50103;47.960;21.712;2023-02-02T17:32:55;100221.16;;;5.79;71.27
63927;BME280;50103;47.960;21.712;2023-02-02T17:35:23;100223.52;;;5.74;71.78
63927;BME280;50103;47.960;21.712;2023-02-02T17:37:50;100226.52;;;5.71;71.94
63927;BME280;50103;47.960;21.712;2023-02-02T17:40:21;100225.30;;;5.68;72.27
63927;BME280;50103;47.960;21.712;2023-02-02T17:42:49;100230.11;;;5.67;72.71
63927;BME280;50103;47.960;21.712;2023-02-02T17:45:20;100233.71;;;5.66;72.93
63927;BME280;50103;47.960;21.712;2023-02-02T17:47:51;100242.27;;;5.63;73.01
63927;BME280;50103;47.960;21.712;2023-02-02T17:50:17;100249.91;;;5.61;73.04
63927;BME280;50103;47.960;21.712;2023-02-02T17:52:44;100249.38;;;5.59;73.20
63927;BME280;50103;47.960;21.712;2023-02-02T17:57:56;100252.98;;;5.51;73.07
63927;BME280;50103;47.960;21.712;2023-02-02T18:00:24;100259.39;;;5.47;72.95
63927;BME280;50103;47.960;21.712;2023-02-02T18:03:13;100261.59;;;5.42;73.18
63927;BME280;50103;47.960;21.712;2023-02-02T18:05:37;100262.02;;;5.37;73.27
63927;BME280;50103;47.960;21.712;2023-02-02T18:08:03;100264.23;;;5.33;73.37
63927;BME280;50103;47.960;21.712;2023-02-02T18:10:29;100268.59;;;5.30;73.29
63927;BME280;50103;47.960;21.712;2023-02-02T18:12:55;100268.98;;;5.26;73.23
63927;BME280;50103;47.960;21.712;2023-02-02T18:15:22;100270.69;;;5.23;73.28
63927;BME280;50103;47.960;21.712;2023-02-02T18:17:47;100273.46;;;5.21;73.20
63927;BME280;50103;47.960;21.712;2023-02-02T18:20:14;100272.37;;;5.19;73.12
63927;BME280;50103;47.960;21.712;2023-02-02T18:22:41;100270.98;;;5.15;72.68
63927;BME280;50103;47.960;21.712;2023-02-02T18:25:11;100274.43;;;5.10;72.68
63927;BME280;50103;47.960;21.712;2023-02-02T18:27:37;100280.59;;;5.06;72.68
63927;BME280;50103;47.960;21.712;2023-02-02T18:30:03;100285.84;;;5.04;72.65
63927;BME280;50103;47.960;21.712;2023-02-02T18:32:29;100287.02;;;5.02;72.63
63927;BME280;50103;47.960;21.712;2023-02-02T18:34:55;100289.41;;;5.00;72.47
63927;BME280;50103;47.960;21.712;2023-02-02T18:37:22;100293.64;;;4.96;72.51
63927;BME280;50103;47.960;21.712;2023-02-02T18:39:50;100298.71;;;4.92;72.58
63927;BME280;50103;47.960;21.712;2023-02-02T18:42:17;100298.98;;;4.88;72.68
63927;BME280;50103;47.960;21.712;2023-02-02T18:44:44;100303.70;;;4.85;72.72
63927;BME280;50103;47.960;21.712;2023-02-02T18:47:09;100306.85;;;4.82;72.85
63927;BME280;50103;47.960;21.712;2023-02-02T18:49:35;100312.14;;;4.78;73.03
63927;BME280;50103;47.960;21.712;2023-02-02T18:52:01;100319.26;;;4.76;73.12
63927;BME280;50103;47.960;21.712;2023-02-02T18:54:27;100322.70;;;4.74;73.25
63927;BME280;50103;47.960;21.712;2023-02-02T18:56:53;100322.84;;;4.71;73.46
63927;BME280;50103;47.960;21.712;2023-02-02T18:59:18;100326.48;;;4.69;73.36
63927;BME280;50103;47.960;21.712;2023-02-02T19:01:44;100327.17;;;4.66;73.44
63927;BME280;50103;47.960;21.712;2023-02-02T19:04:09;100336.08;;;4.63;73.61
63927;BME280;50103;47.960;21.712;2023-02-02T19:06:35;100336.73;;;4.61;73.73
63927;BME280;50103;47.960;21.712;2023-02-02T19:09:19;100345.80;;;4.58;73.85
63927;BME280;50103;47.960;21.712;2023-02-02T19:11:48;100347.11;;;4.56;73.98
63927;BME280;50103;47.960;21.712;2023-02-02T19:14:35;100351.06;;;4.55;74.05
63927;BME280;50103;47.960;21.712;2023-02-02T19:17:22;100352.81;;;4.52;74.04
63927;BME280;50103;47.960;21.712;2023-02-02T19:19:53;100355.62;;;4.48;74.08
63927;BME280;50103;47.960;21.712;2023-02-02T19:22:24;100358.37;;;4.46;74.39
63927;BME280;50103;47.960;21.712;2023-02-02T19:24:56;100367.95;;;4.43;74.45
63927;BME280;50103;47.960;21.712;2023-02-02T19:27:24;100373.50;;;4.41;74.66
63927;BME280;50103;47.960;21.712;2023-02-02T19:29:53;100368.89;;;4.39;74.69
63927;BME280;50103;47.960;21.712;2023-02-02T19:32:22;100373.88;;;4.38;74.72
63927;BME280;50103;47.960;21.712;2023-02-02T19:34:54;100374.90;;;4.35;74.83
63927;BME280;50103;47.960;21.712;2023-02-02T19:37:23;100383.80;;;4.32;74.72
63927;BME280;50103;47.960;21.712;2023-02-02T19:42:22;100386.18;;;4.26;74.99
63927;BME280;50103;47.960;21.712;2023-02-02T19:44:48;100383.35;;;4.23;75.02
63927;BME280;50103;47.960;21.712;2023-02-02T19:47:27;100390.75;;;4.19;74.84
63927;BME280;50103;47.960;21.712;2023-02-02T19:49:55;100396.25;;;4.14;75.06
63927;BME280;50103;47.960;21.712;2023-02-02T19:52:22;100400.83;;;4.10;75.00
63927;BME280;50103;47.960;21.712;2023-02-02T19:54:51;100413.44;;;4.07;75.13
63927;BME280;50103;47.960;21.712;2023-02-02T19:57:36;100417.85;;;4.02;75.03
63927;BME280;50103;47.960;21.712;2023-02-02T20:00:22;100431.14;;;3.99;75.13
